createdAt,value
2022-11-23T00:00:47.180Z,9.3
2022-11-23T00:01:55.565Z,9.3
2022-11-23T00:03:03.843Z,9.3
2022-11-23T00:04:12.389Z,8.4
2022-11-23T00:05:20.714Z,8.4
2022-11-23T00:06:29.186Z,8.4
2022-11-23T00:07:37.640Z,10.7
2022-11-23T00:08:45.926Z,10.7
2022-11-23T00:09:54.261Z,10.7
2022-11-23T00:11:02.794Z,10.9
2022-11-23T00:12:11.134Z,10.9
2022-11-23T00:13:19.449Z,10.9
2022-11-23T00:14:27.986Z,8.9
2022-11-23T00:15:36.315Z,8.9
2022-11-23T00:16:44.645Z,8.9
2022-11-23T00:17:53.187Z,11.3
2022-11-23T00:19:01.528Z,11.3
2022-11-23T00:20:09.847Z,11.3
2022-11-23T00:21:18.406Z,10.2
2022-11-23T00:22:26.783Z,10.2
2022-11-23T00:23:35.110Z,10.2
2022-11-23T00:24:43.729Z,7.3
2022-11-23T00:25:51.996Z,7.3
2022-11-23T00:27:00.366Z,7.3
2022-11-23T00:28:08.901Z,8.8
2022-11-23T00:29:17.251Z,8.8
2022-11-23T00:30:25.578Z,8.8
2022-11-23T00:31:34.149Z,8
2022-11-23T00:32:42.474Z,8
2022-11-23T00:33:50.829Z,8
2022-11-23T00:34:59.366Z,7.6
2022-11-23T00:36:07.704Z,7.6
2022-11-23T00:37:16.048Z,7.6
2022-11-23T00:38:24.621Z,8
2022-11-23T00:39:33.131Z,8
2022-11-23T00:40:41.257Z,8
2022-11-23T00:41:49.805Z,10
2022-11-23T00:42:58.142Z,10
2022-11-23T00:44:06.498Z,10
2022-11-23T00:45:15.065Z,9.5
2022-11-23T00:46:23.421Z,9.5
2022-11-23T00:47:31.735Z,9.5
2022-11-23T00:48:40.299Z,8.6
2022-11-23T00:49:48.650Z,8.6
2022-11-23T00:50:56.982Z,8.6
2022-11-23T00:52:05.531Z,10.8
2022-11-23T00:53:13.873Z,10.8
2022-11-23T00:54:22.240Z,10.8
2022-11-23T00:55:30.780Z,11
2022-11-23T00:56:39.103Z,11
2022-11-23T00:57:47.450Z,11
2022-11-23T00:58:55.997Z,11.6
2022-11-23T01:00:04.321Z,11.6
2022-11-23T01:01:12.745Z,11.6
2022-11-23T01:02:21.215Z,9
2022-11-23T01:03:29.555Z,9
2022-11-23T01:04:37.896Z,9
2022-11-23T01:05:46.440Z,9.4
2022-11-23T01:06:54.792Z,9.4
2022-11-23T01:08:03.124Z,9.4
2022-11-23T01:09:11.678Z,10.6
2022-11-23T01:10:20.022Z,10.6
2022-11-23T01:11:28.357Z,10.6
2022-11-23T01:12:36.900Z,10
2022-11-23T01:13:45.239Z,10
2022-11-23T01:14:53.574Z,10
2022-11-23T01:16:02.121Z,11.3
2022-11-23T01:17:10.468Z,11.3
2022-11-23T01:18:18.834Z,11.3
2022-11-23T01:19:27.369Z,11.1
2022-11-23T01:20:35.711Z,11.1
2022-11-23T01:21:44.043Z,11.1
2022-11-23T01:22:52.588Z,10.8
2022-11-23T01:24:00.938Z,10.8
2022-11-23T01:25:09.268Z,10.8
2022-11-23T01:26:17.829Z,12
2022-11-23T01:27:26.177Z,12
2022-11-23T01:28:34.514Z,12
2022-11-23T01:29:43.058Z,11.7
2022-11-23T01:30:51.389Z,11.7
2022-11-23T01:31:59.723Z,11.7
2022-11-23T01:33:08.275Z,10.2
2022-11-23T01:34:16.605Z,10.2
2022-11-23T01:35:24.962Z,10.2
2022-11-23T01:36:33.508Z,11.3
2022-11-23T01:37:41.857Z,11.3
2022-11-23T01:38:50.198Z,11.3
2022-11-23T01:39:58.770Z,9.7
2022-11-23T01:41:07.094Z,9.7
2022-11-23T01:42:17.969Z,9.7
2022-11-23T01:43:23.980Z,10.8
2022-11-23T01:44:32.319Z,10.8
2022-11-23T01:45:40.645Z,10.8
2022-11-23T01:46:49.216Z,10.8
2022-11-23T01:47:57.556Z,10.8
2022-11-23T01:49:05.891Z,10.8
2022-11-23T01:50:14.428Z,10.2
2022-11-23T01:51:22.799Z,10.2
2022-11-23T01:52:31.155Z,10.2
2022-11-23T01:53:39.687Z,9.8
2022-11-23T01:54:48.019Z,9.8
2022-11-23T01:55:56.368Z,9.8
2022-11-23T01:57:04.937Z,10.3
2022-11-23T01:58:13.290Z,10.3
2022-11-23T01:59:21.632Z,10.3
2022-11-23T02:00:30.190Z,10.7
2022-11-23T02:01:38.613Z,10.7
2022-11-23T02:02:46.911Z,10.7
2022-11-23T02:03:55.451Z,12.7
2022-11-23T02:05:03.789Z,12.7
2022-11-23T02:06:12.117Z,12.7
2022-11-23T02:07:20.806Z,10.7
2022-11-23T02:08:29.019Z,10.7
2022-11-23T02:09:37.362Z,10.7
2022-11-23T02:10:45.935Z,8
2022-11-23T02:11:54.250Z,8
2022-11-23T02:13:02.592Z,8
2022-11-23T02:14:11.171Z,8.8
2022-11-23T02:15:19.471Z,8.8
2022-11-23T02:16:27.799Z,8.8
2022-11-23T02:17:36.335Z,10.9
2022-11-23T02:18:44.702Z,10.9
2022-11-23T02:19:53.048Z,10.9
2022-11-23T02:21:01.589Z,11.2
2022-11-23T02:22:09.941Z,11.2
2022-11-23T02:23:18.273Z,11.2
2022-11-23T02:24:26.829Z,10.6
2022-11-23T02:25:35.188Z,10.6
2022-11-23T02:26:43.552Z,10.6
2022-11-23T02:27:52.083Z,11.9
2022-11-23T02:29:00.428Z,11.9
2022-11-23T02:30:08.785Z,11.9
2022-11-23T02:31:17.308Z,11.6
2022-11-23T02:32:25.647Z,11.6
2022-11-23T02:33:33.980Z,11.6
2022-11-23T02:34:42.520Z,12.2
2022-11-23T02:35:50.858Z,12.2
2022-11-23T02:36:59.192Z,12.2
2022-11-23T02:38:07.752Z,10.7
2022-11-23T02:39:16.089Z,10.7
2022-11-23T02:40:24.419Z,10.7
2022-11-23T02:41:32.968Z,12.7
2022-11-23T02:42:41.321Z,12.7
2022-11-23T02:43:49.656Z,12.7
2022-11-23T02:44:58.218Z,11.4
2022-11-23T02:46:06.568Z,11.4
2022-11-23T02:47:14.897Z,11.4
2022-11-23T02:48:23.422Z,10.8
2022-11-23T02:49:31.969Z,10.8
2022-11-23T02:50:40.096Z,10.8
2022-11-23T02:51:48.665Z,13.1
2022-11-23T02:52:57.003Z,13.1
2022-11-23T02:54:05.336Z,13.1
2022-11-23T02:55:13.905Z,9.4
2022-11-23T02:56:22.283Z,9.4
2022-11-23T02:57:30.617Z,9.4
2022-11-23T02:58:39.157Z,10.4
2022-11-23T02:59:47.507Z,10.4
2022-11-23T03:00:55.913Z,10.4
2022-11-23T03:02:04.445Z,10.4
2022-11-23T03:03:12.751Z,10.4
2022-11-23T03:04:27.295Z,10.4
2022-11-23T03:05:29.621Z,15.7
2022-11-23T03:06:37.985Z,15.7
2022-11-23T03:07:46.372Z,15.7
2022-11-23T03:08:54.860Z,12
2022-11-23T03:10:03.207Z,12
2022-11-23T03:11:11.528Z,12
2022-11-23T03:12:20.111Z,11.8
2022-11-23T03:13:28.451Z,11.8
2022-11-23T03:14:36.802Z,11.8
2022-11-23T03:15:45.360Z,9.9
2022-11-23T03:16:53.683Z,9.9
2022-11-23T03:18:02.053Z,9.9
2022-11-23T03:19:10.586Z,11.8
2022-11-23T03:20:18.948Z,11.8
2022-11-23T03:21:27.316Z,11.8
2022-11-23T03:22:35.855Z,11.1
2022-11-23T03:23:44.187Z,11.1
2022-11-23T03:24:52.525Z,11.1
2022-11-23T03:26:01.074Z,11.4
2022-11-23T03:27:09.436Z,11.4
2022-11-23T03:28:17.765Z,11.4
2022-11-23T03:29:26.332Z,10.4
2022-11-23T03:30:34.669Z,10.4
2022-11-23T03:31:42.999Z,10.4
2022-11-23T03:32:51.559Z,11.6
2022-11-23T03:33:59.910Z,11.6
2022-11-23T03:35:08.215Z,11.6
2022-11-23T03:36:16.801Z,11.8
2022-11-23T03:37:25.158Z,11.8
2022-11-23T03:38:33.484Z,11.8
2022-11-23T03:39:47.137Z,12.4
2022-11-23T03:40:50.381Z,12.4
2022-11-23T03:41:58.722Z,12.4
2022-11-23T03:43:07.273Z,10.1
2022-11-23T03:44:15.622Z,10.1
2022-11-23T03:45:23.979Z,10.1
2022-11-23T03:46:32.521Z,8.7
2022-11-23T03:47:40.852Z,8.7
2022-11-23T03:48:49.204Z,8.7
2022-11-23T03:49:57.764Z,9.5
2022-11-23T03:51:06.095Z,9.5
2022-11-23T03:52:14.441Z,9.5
2022-11-23T03:53:22.987Z,11.3
2022-11-23T03:54:31.326Z,11.3
2022-11-23T03:55:39.691Z,11.3
2022-11-23T03:56:48.265Z,10.5
2022-11-23T03:57:56.599Z,10.5
2022-11-23T03:59:04.954Z,10.5
2022-11-23T04:00:13.486Z,13.8
2022-11-23T04:01:21.870Z,13.8
2022-11-23T04:02:30.193Z,13.8
2022-11-23T04:03:38.732Z,9.4
2022-11-23T04:04:47.095Z,9.4
2022-11-23T04:05:55.459Z,9.4
2022-11-23T04:07:04.080Z,8.1
2022-11-23T04:08:12.327Z,8.1
2022-11-23T04:09:20.665Z,8.1
2022-11-23T04:10:29.214Z,11.4
2022-11-23T04:11:37.562Z,11.4
2022-11-23T04:12:45.912Z,11.4
2022-11-23T04:13:54.446Z,10.3
2022-11-23T04:15:02.782Z,10.3
2022-11-23T04:16:11.111Z,10.3
2022-11-23T04:17:19.689Z,11.6
2022-11-23T04:18:28.033Z,11.6
2022-11-23T04:19:36.358Z,11.6
2022-11-23T04:20:44.950Z,9.4
2022-11-23T04:21:53.308Z,9.4
2022-11-23T04:23:01.627Z,9.4
2022-11-23T04:24:10.169Z,7.7
2022-11-23T04:25:18.531Z,7.7
2022-11-23T04:26:26.851Z,7.7
2022-11-23T04:27:35.406Z,10.5
2022-11-23T04:28:43.735Z,10.5
2022-11-23T04:29:52.082Z,10.5
2022-11-23T04:31:00.631Z,10.2
2022-11-23T04:32:09.002Z,10.2
2022-11-23T04:33:17.345Z,10.2
2022-11-23T04:34:25.872Z,8.3
2022-11-23T04:35:34.215Z,8.3
2022-11-23T04:36:42.573Z,8.3
2022-11-23T04:37:51.132Z,10.2
2022-11-23T04:38:59.478Z,10.2
2022-11-23T04:40:07.812Z,10.2
2022-11-23T04:41:16.359Z,10
2022-11-23T04:42:24.724Z,10
2022-11-23T04:43:33.060Z,10
2022-11-23T04:44:41.599Z,8.8
2022-11-23T04:45:49.945Z,8.8
2022-11-23T04:46:58.319Z,8.8
2022-11-23T04:48:06.861Z,9
2022-11-23T04:49:15.195Z,9
2022-11-23T04:50:23.522Z,9
2022-11-23T04:51:32.091Z,11.3
2022-11-23T04:52:40.426Z,11.3
2022-11-23T04:53:48.822Z,11.3
2022-11-23T04:54:57.374Z,10
2022-11-23T04:56:05.697Z,10
2022-11-23T04:57:14.041Z,10
2022-11-23T04:58:22.575Z,9.9
2022-11-23T04:59:31.153Z,9.9
2022-11-23T05:00:39.270Z,9.9
2022-11-23T05:01:47.835Z,9.8
2022-11-23T05:02:56.162Z,9.8
2022-11-23T05:04:04.492Z,9.8
2022-11-23T05:05:13.077Z,10.9
2022-11-23T05:06:21.408Z,10.9
2022-11-23T05:07:29.798Z,10.9
2022-11-23T05:08:38.295Z,12.6
2022-11-23T05:09:46.641Z,12.6
2022-11-23T05:10:54.957Z,12.6
2022-11-23T05:12:03.507Z,31.1
2022-11-23T05:13:11.870Z,31.1
2022-11-23T05:14:20.222Z,31.1
2022-11-23T05:15:28.754Z,18.6
2022-11-23T05:16:37.112Z,18.6
2022-11-23T05:17:45.445Z,18.6
2022-11-23T05:18:53.978Z,10.6
2022-11-23T05:20:02.359Z,10.6
2022-11-23T05:21:10.668Z,10.6
2022-11-23T05:22:19.218Z,9.2
2022-11-23T05:23:27.570Z,9.2
2022-11-23T05:24:35.902Z,9.2
2022-11-23T05:25:44.476Z,12.7
2022-11-23T05:26:56.130Z,12.7
2022-11-23T05:28:11.313Z,12.7
2022-11-23T05:29:09.679Z,11.3
2022-11-23T05:30:18.027Z,11.3
2022-11-23T05:31:26.367Z,11.3
2022-11-23T05:32:34.931Z,8.4
2022-11-23T05:33:43.276Z,8.4
2022-11-23T05:34:51.625Z,8.4
2022-11-23T05:36:00.178Z,10.1
2022-11-23T05:37:08.510Z,10.1
2022-11-23T05:38:16.856Z,10.1
2022-11-23T05:39:25.395Z,10.8
2022-11-23T05:40:33.752Z,10.8
2022-11-23T05:41:42.131Z,10.8
2022-11-23T05:42:50.630Z,11.9
2022-11-23T05:43:58.966Z,11.9
2022-11-23T05:45:11.200Z,11.9
2022-11-23T05:46:15.852Z,11.5
2022-11-23T05:47:24.213Z,11.5
2022-11-23T05:48:32.544Z,11.5
2022-11-23T05:49:41.112Z,12.7
2022-11-23T05:50:49.452Z,12.7
2022-11-23T05:51:57.793Z,12.7
2022-11-23T05:53:06.361Z,9.5
2022-11-23T05:54:14.690Z,9.5
2022-11-23T05:55:23.048Z,9.5
2022-11-23T05:56:34.701Z,9.7
2022-11-23T05:57:39.963Z,9.7
2022-11-23T05:58:48.275Z,9.7
2022-11-23T05:59:56.811Z,10.3
2022-11-23T06:01:05.152Z,10.3
2022-11-23T06:02:13.485Z,10.3
2022-11-23T06:03:22.032Z,9.6
2022-11-23T06:04:30.356Z,9.6
2022-11-23T06:05:38.733Z,9.6
2022-11-23T06:06:47.258Z,12
2022-11-23T06:07:55.859Z,12
2022-11-23T06:09:03.916Z,12
2022-11-23T06:10:12.485Z,11.7
2022-11-23T06:11:20.799Z,11.7
2022-11-23T06:12:29.169Z,11.7
2022-11-23T06:13:37.779Z,11.2
2022-11-23T06:14:46.107Z,11.2
2022-11-23T06:15:54.469Z,11.2
2022-11-23T06:17:03.007Z,10
2022-11-23T06:18:11.361Z,10
2022-11-23T06:19:19.703Z,10
2022-11-23T06:20:28.234Z,10.8
2022-11-23T06:21:36.590Z,10.8
2022-11-23T06:22:44.943Z,10.8
2022-11-23T06:23:53.465Z,11.1
2022-11-23T06:25:01.807Z,11.1
2022-11-23T06:26:10.127Z,11.1
2022-11-23T06:27:18.702Z,9.2
2022-11-23T06:28:27.034Z,9.2
2022-11-23T06:29:35.401Z,9.2
2022-11-23T06:30:43.909Z,9
2022-11-23T06:31:52.257Z,9
2022-11-23T06:33:00.587Z,9
2022-11-23T06:34:09.145Z,8.8
2022-11-23T06:35:17.483Z,8.8
2022-11-23T06:36:25.821Z,8.8
2022-11-23T06:37:34.400Z,8.3
2022-11-23T06:38:42.726Z,8.3
2022-11-23T06:39:51.045Z,8.3
2022-11-23T06:40:59.595Z,10.5
2022-11-23T06:42:31.216Z,10.5
2022-11-23T06:43:16.293Z,10.5
2022-11-23T06:44:24.827Z,9.6
2022-11-23T06:45:33.215Z,9.6
2022-11-23T06:46:41.522Z,9.6
2022-11-23T06:47:50.077Z,10.5
2022-11-23T06:48:58.416Z,10.5
2022-11-23T06:50:06.772Z,10.5
2022-11-23T06:51:15.305Z,10.4
2022-11-23T06:52:23.643Z,10.4
2022-11-23T06:53:31.998Z,10.4
2022-11-23T06:54:40.526Z,9.5
2022-11-23T06:55:48.861Z,9.5
2022-11-23T06:56:57.197Z,9.5
2022-11-23T06:58:05.755Z,10.3
2022-11-23T06:59:14.097Z,10.3
2022-11-23T07:00:22.422Z,10.3
2022-11-23T07:01:31.086Z,9.4
2022-11-23T07:02:39.325Z,9.4
2022-11-23T07:03:47.755Z,9.4
2022-11-23T07:04:56.208Z,10.3
2022-11-23T07:06:04.531Z,10.3
2022-11-23T07:07:12.996Z,10.3
2022-11-23T07:08:21.448Z,8.3
2022-11-23T07:09:30.124Z,8.3
2022-11-23T07:10:38.144Z,8.3
2022-11-23T07:11:46.682Z,10.5
2022-11-23T07:12:55.029Z,10.5
2022-11-23T07:14:03.358Z,10.5
2022-11-23T07:15:11.915Z,18.6
2022-11-23T07:16:20.259Z,18.6
2022-11-23T07:17:28.614Z,18.6
2022-11-23T07:18:37.144Z,10.2
2022-11-23T07:19:45.480Z,10.2
2022-11-23T07:20:53.817Z,10.2
2022-11-23T07:22:02.364Z,8.6
2022-11-23T07:23:10.701Z,8.6
2022-11-23T07:24:19.033Z,8.6
2022-11-23T07:25:27.562Z,10.9
2022-11-23T07:26:35.906Z,10.9
2022-11-23T07:27:44.279Z,10.9
2022-11-23T07:28:52.807Z,12.1
2022-11-23T07:30:01.163Z,12.1
2022-11-23T07:31:09.494Z,12.1
2022-11-23T07:32:18.055Z,13.8
2022-11-23T07:33:26.423Z,13.8
2022-11-23T07:34:34.716Z,13.8
2022-11-23T07:35:43.295Z,16
2022-11-23T07:36:51.621Z,16
2022-11-23T07:37:59.973Z,16
2022-11-23T07:39:08.523Z,10.5
2022-11-23T07:40:16.872Z,10.5
2022-11-23T07:41:25.201Z,10.5
2022-11-23T07:42:37.156Z,15.2
2022-11-23T07:43:42.082Z,15.2
2022-11-23T07:44:50.406Z,15.2
2022-11-23T07:45:58.959Z,15.7
2022-11-23T07:47:07.295Z,15.7
2022-11-23T07:48:15.654Z,15.7
2022-11-23T07:49:24.235Z,11.8
2022-11-23T07:50:32.576Z,11.8
2022-11-23T07:51:40.925Z,11.8
2022-11-23T07:52:49.486Z,14.9
2022-11-23T07:53:57.831Z,14.9
2022-11-23T07:55:06.166Z,14.9
2022-11-23T07:56:14.717Z,10.5
2022-11-23T07:57:23.085Z,10.5
2022-11-23T07:58:31.437Z,10.5
2022-11-23T07:59:39.987Z,13.3
2022-11-23T08:00:48.324Z,13.3
2022-11-23T08:01:58.529Z,13.3
2022-11-23T08:03:26.460Z,10.9
2022-11-23T08:04:13.574Z,10.9
2022-11-23T08:05:21.966Z,10.9
2022-11-23T08:06:30.514Z,11.5
2022-11-23T08:07:38.947Z,11.5
2022-11-23T08:08:47.197Z,11.5
2022-11-23T08:09:55.753Z,11.5
2022-11-23T08:11:04.092Z,11.5
2022-11-23T08:12:12.491Z,11.5
2022-11-23T08:13:21.004Z,10.5
2022-11-23T08:14:29.376Z,10.5
2022-11-23T08:15:37.681Z,10.5
2022-11-23T08:16:46.238Z,14
2022-11-23T08:17:54.605Z,14
2022-11-23T08:19:02.938Z,14
2022-11-23T08:20:11.500Z,11.3
2022-11-23T08:21:19.856Z,11.3
2022-11-23T08:22:28.170Z,11.3
2022-11-23T08:23:36.736Z,11.9
2022-11-23T08:24:45.126Z,11.9
2022-11-23T08:25:53.454Z,11.9
2022-11-23T08:27:02.020Z,10
2022-11-23T08:28:10.368Z,10
2022-11-23T08:29:18.689Z,10
2022-11-23T08:30:27.252Z,16.799999
2022-11-23T08:31:35.596Z,16.799999
2022-11-23T08:32:43.936Z,16.799999
2022-11-23T08:33:52.501Z,12.3
2022-11-23T08:35:00.833Z,12.3
2022-11-23T08:36:09.162Z,12.3
2022-11-23T08:37:17.780Z,10.3
2022-11-23T08:38:26.041Z,10.3
2022-11-23T08:39:34.424Z,10.3
2022-11-23T08:40:42.921Z,12.1
2022-11-23T08:41:51.884Z,12.1
2022-11-23T08:43:00.088Z,12.1
2022-11-23T08:44:08.633Z,16.1
2022-11-23T08:45:16.951Z,16.1
2022-11-23T08:46:25.280Z,16.1
2022-11-23T08:47:33.824Z,10.8
2022-11-23T08:48:42.159Z,10.8
2022-11-23T08:49:50.504Z,10.8
2022-11-23T08:50:59.045Z,37.200001
2022-11-23T08:52:07.386Z,37.200001
2022-11-23T08:53:15.749Z,37.200001
2022-11-23T08:54:24.277Z,28.4
2022-11-23T08:55:32.591Z,28.4
2022-11-23T08:56:40.928Z,28.4
2022-11-23T08:57:49.462Z,10.1
2022-11-23T08:58:57.795Z,10.1
2022-11-23T09:00:06.125Z,10.1
2022-11-23T09:01:14.759Z,30.299999
2022-11-23T09:02:23.003Z,30.299999
2022-11-23T09:03:31.345Z,30.299999
2022-11-23T09:04:39.872Z,17.4
2022-11-23T09:05:48.239Z,17.4
2022-11-23T09:06:56.572Z,17.4
2022-11-23T09:08:05.124Z,107.19999
2022-11-23T09:09:13.482Z,107.19999
2022-11-23T09:10:21.778Z,107.19999
2022-11-23T09:11:30.350Z,25.5
2022-11-23T09:12:38.697Z,25.5
2022-11-23T09:13:47.016Z,25.5
2022-11-23T09:14:55.551Z,17.700001
2022-11-23T09:16:03.875Z,17.700001
2022-11-23T09:17:12.216Z,17.700001
2022-11-23T09:18:20.757Z,57.299999
2022-11-23T09:19:29.089Z,57.299999
2022-11-23T09:20:37.417Z,57.299999
2022-11-23T09:21:45.970Z,21.5
2022-11-23T09:22:54.309Z,21.5
2022-11-23T09:24:02.661Z,21.5
2022-11-23T09:25:11.199Z,25.1
2022-11-23T09:26:19.499Z,25.1
2022-11-23T09:27:27.844Z,25.1
2022-11-23T09:28:39.124Z,11.8
2022-11-23T09:29:44.709Z,11.8
2022-11-23T09:30:53.047Z,11.8
2022-11-23T09:32:01.590Z,14.8
2022-11-23T09:33:09.935Z,14.8
2022-11-23T09:34:18.268Z,14.8
2022-11-23T09:35:26.830Z,11.5
2022-11-23T09:36:35.168Z,11.5
2022-11-23T09:37:43.514Z,11.5
2022-11-23T09:38:56.392Z,9.4
2022-11-23T09:40:00.462Z,9.4
2022-11-23T09:41:08.821Z,9.4
2022-11-23T09:42:17.348Z,10.1
2022-11-23T09:43:25.683Z,10.1
2022-11-23T09:44:34.414Z,10.1
2022-11-23T09:45:42.561Z,83.300003
2022-11-23T09:46:50.896Z,83.300003
2022-11-23T09:47:59.222Z,83.300003
2022-11-23T09:49:07.756Z,19.4
2022-11-23T09:50:16.086Z,19.4
2022-11-23T09:51:24.420Z,19.4
2022-11-23T09:52:32.961Z,15.5
2022-11-23T09:53:41.300Z,15.5
2022-11-23T09:54:49.615Z,15.5
2022-11-23T09:55:58.149Z,12.7
2022-11-23T09:57:06.505Z,12.7
2022-11-23T09:58:14.813Z,12.7
2022-11-23T09:59:23.346Z,12.5
2022-11-23T10:00:31.675Z,12.5
2022-11-23T10:01:40.060Z,12.5
2022-11-23T10:02:48.556Z,22
2022-11-23T10:03:56.872Z,22
2022-11-23T10:05:05.201Z,22
2022-11-23T10:06:13.742Z,10.3
2022-11-23T10:07:22.100Z,10.3
2022-11-23T10:08:30.407Z,10.3
2022-11-23T10:09:38.944Z,10.1
2022-11-23T10:10:47.264Z,10.1
2022-11-23T10:11:55.608Z,10.1
2022-11-23T10:13:04.205Z,13.4
2022-11-23T10:14:12.516Z,13.4
2022-11-23T10:15:20.864Z,13.4
2022-11-23T10:16:29.467Z,20.5
2022-11-23T10:17:37.739Z,20.5
2022-11-23T10:18:46.084Z,20.5
2022-11-23T10:19:54.625Z,10.5
2022-11-23T10:21:02.964Z,10.5
2022-11-23T10:22:11.316Z,10.5
2022-11-23T10:23:19.860Z,14.9
2022-11-23T10:24:28.184Z,14.9
2022-11-23T10:25:39.216Z,14.9
2022-11-23T10:26:45.051Z,20.299999
2022-11-23T10:27:53.384Z,20.299999
2022-11-23T10:29:02.080Z,20.299999
2022-11-23T10:30:10.258Z,10.4
2022-11-23T10:31:18.589Z,10.4
2022-11-23T10:32:26.928Z,10.4
2022-11-23T10:33:35.460Z,15.5
2022-11-23T10:34:43.785Z,15.5
2022-11-23T10:35:52.118Z,15.5
2022-11-23T10:37:00.673Z,13.1
2022-11-23T10:38:10.367Z,13.1
2022-11-23T10:39:17.328Z,13.1
2022-11-23T10:40:25.862Z,28.200001
2022-11-23T10:41:34.206Z,28.200001
2022-11-23T10:42:42.536Z,28.200001
2022-11-23T10:43:51.075Z,20.799999
2022-11-23T10:44:59.422Z,20.799999
2022-11-23T10:46:07.733Z,20.799999
2022-11-23T10:47:16.284Z,373
2022-11-23T10:48:24.631Z,373
2022-11-23T10:49:32.989Z,373
2022-11-23T10:50:41.524Z,13.9
2022-11-23T10:51:49.876Z,13.9
2022-11-23T10:52:58.202Z,13.9
2022-11-23T10:54:06.738Z,12.3
2022-11-23T10:55:15.070Z,12.3
2022-11-23T10:56:23.405Z,12.3
2022-11-23T10:57:31.969Z,12.6
2022-11-23T10:58:40.295Z,12.6
2022-11-23T10:59:48.628Z,12.6
2022-11-23T11:00:57.194Z,8.6
2022-11-23T11:02:05.580Z,8.6
2022-11-23T11:03:13.838Z,8.6
2022-11-23T11:04:22.397Z,12
2022-11-23T11:06:41.992Z,12
2022-11-23T11:07:50.569Z,16.700001
2022-11-23T11:09:02.702Z,16.700001
2022-11-23T11:10:07.179Z,16.700001
2022-11-23T11:11:15.780Z,10.1
2022-11-23T11:12:24.099Z,10.1
2022-11-23T11:13:32.436Z,10.1
2022-11-23T11:14:43.185Z,9.8
2022-11-23T11:15:49.292Z,9.8
2022-11-23T11:16:57.667Z,9.8
2022-11-23T11:18:06.179Z,8.4
2022-11-23T11:19:14.510Z,8.4
2022-11-23T11:20:22.845Z,8.4
2022-11-23T11:21:31.376Z,8.3
2022-11-23T11:22:43.339Z,8.3
2022-11-23T11:23:48.078Z,8.3
2022-11-23T11:24:56.609Z,5.9
2022-11-23T11:26:04.963Z,5.9
2022-11-23T11:27:13.303Z,5.9
2022-11-23T11:28:21.834Z,7.5
2022-11-23T11:29:34.021Z,7.5
2022-11-23T11:30:38.491Z,7.5
2022-11-23T11:31:47.034Z,10.5
2022-11-23T11:32:55.391Z,10.5
2022-11-23T11:34:03.695Z,10.5
2022-11-23T11:35:16.129Z,8.8
2022-11-23T11:36:20.565Z,8.8
2022-11-23T11:37:28.908Z,8.8
2022-11-23T11:38:37.450Z,15.5
2022-11-23T11:39:45.800Z,15.5
2022-11-23T11:40:54.141Z,15.5
2022-11-23T11:42:02.672Z,11.9
2022-11-23T11:43:11.008Z,11.9
2022-11-23T11:44:19.341Z,11.9
2022-11-23T11:45:27.882Z,11
2022-11-23T11:46:36.224Z,11
2022-11-23T11:47:44.550Z,11
2022-11-23T11:48:53.114Z,15.4
2022-11-23T11:50:01.407Z,15.4
2022-11-23T11:51:09.773Z,15.4
2022-11-23T11:52:18.300Z,5.7
2022-11-23T11:53:26.640Z,5.7
2022-11-23T11:54:35.337Z,5.7
2022-11-23T11:55:43.520Z,6.5
2022-11-23T11:56:51.850Z,6.5
2022-11-23T11:58:00.185Z,6.5
2022-11-23T11:59:08.733Z,9.5
2022-11-23T12:00:17.046Z,9.5
2022-11-23T12:01:25.377Z,9.5
2022-11-23T12:02:33.987Z,8
2022-11-23T12:03:42.281Z,8
2022-11-23T12:04:50.647Z,8
2022-11-23T12:05:59.166Z,5.9
2022-11-23T12:07:07.528Z,5.9
2022-11-23T12:08:15.838Z,5.9
2022-11-23T12:09:24.373Z,5.9
2022-11-23T12:10:32.698Z,5.9
2022-11-23T12:11:41.053Z,5.9
2022-11-23T12:12:49.591Z,6
2022-11-23T12:13:57.917Z,6
2022-11-23T12:15:20.432Z,6
2022-11-23T12:16:14.796Z,5.4
2022-11-23T12:17:32.661Z,5.4
2022-11-23T12:18:31.453Z,5.4
2022-11-23T12:19:39.994Z,4.2
2022-11-23T12:20:48.344Z,4.2
2022-11-23T12:21:56.708Z,4.2
2022-11-23T12:23:05.205Z,6.8
2022-11-23T12:24:13.537Z,6.8
2022-11-23T12:25:21.864Z,6.8
2022-11-23T12:26:30.406Z,5.3
2022-11-23T12:27:42.165Z,5.3
2022-11-23T12:28:47.111Z,5.3
2022-11-23T12:29:55.642Z,9.1
2022-11-23T12:31:03.962Z,9.1
2022-11-23T12:32:12.306Z,9.1
2022-11-23T12:33:20.872Z,8.3
2022-11-23T12:34:29.254Z,8.3
2022-11-23T12:35:37.545Z,8.3
2022-11-23T12:36:46.113Z,6.6
2022-11-23T12:37:54.427Z,6.6
2022-11-23T12:39:02.762Z,6.6
2022-11-23T12:40:11.296Z,6.2
2022-11-23T12:41:19.616Z,6.2
2022-11-23T12:42:27.955Z,6.2
2022-11-23T12:43:36.924Z,8.1
2022-11-23T12:44:44.822Z,8.1
2022-11-23T12:45:53.157Z,8.1
2022-11-23T12:47:01.732Z,6.3
2022-11-23T12:48:10.063Z,6.3
2022-11-23T12:49:18.399Z,6.3
2022-11-23T12:50:26.933Z,6.3
2022-11-23T12:51:35.297Z,6.3
2022-11-23T12:52:43.679Z,6.3
2022-11-23T12:53:52.252Z,5.6
2022-11-23T12:55:01.308Z,5.6
2022-11-23T12:56:09.661Z,5.6
2022-11-23T12:57:18.258Z,6.2
2022-11-23T12:58:26.586Z,6.2
2022-11-23T12:59:34.924Z,6.2
2022-11-23T13:00:43.811Z,7.9
2022-11-23T13:01:52.167Z,7.9
2022-11-23T13:03:00.498Z,7.9
2022-11-23T13:04:09.077Z,7
2022-11-23T13:05:17.421Z,7
2022-11-23T13:06:25.787Z,7
2022-11-23T13:07:42.199Z,6.6
2022-11-23T13:08:42.765Z,6.6
2022-11-23T13:09:51.076Z,6.6
2022-11-23T13:10:59.634Z,6.5
2022-11-23T13:12:07.995Z,6.5
2022-11-23T13:13:16.411Z,6.5
2022-11-23T13:14:24.885Z,9.2
2022-11-23T13:15:33.255Z,9.2
2022-11-23T13:16:41.652Z,9.2
2022-11-23T13:17:50.132Z,8.6
2022-11-23T13:19:03.062Z,8.6
2022-11-23T13:20:06.839Z,8.6
2022-11-23T13:21:15.405Z,6
2022-11-23T13:22:23.789Z,6
2022-11-23T13:23:32.118Z,6
2022-11-23T13:24:40.741Z,7.7
2022-11-23T13:25:49.060Z,7.7
2022-11-23T13:26:57.439Z,7.7
2022-11-23T13:28:05.978Z,6.9
2022-11-23T13:29:14.319Z,6.9
2022-11-23T13:30:22.674Z,6.9
2022-11-23T13:31:31.521Z,9.8
2022-11-23T13:32:39.669Z,9.8
2022-11-23T13:33:48.021Z,9.8
2022-11-23T13:34:56.564Z,7.2
2022-11-23T13:36:10.280Z,7.2
2022-11-23T13:37:13.825Z,7.2
2022-11-23T13:38:21.804Z,7.8
2022-11-23T13:39:30.553Z,7.8
2022-11-23T13:40:38.560Z,7.8
2022-11-23T13:41:47.109Z,6.9
2022-11-23T13:42:55.455Z,6.9
2022-11-23T13:44:03.818Z,6.9
2022-11-23T13:45:12.386Z,9.6
2022-11-23T13:46:20.914Z,9.6
2022-11-23T13:47:29.076Z,9.6
2022-11-23T13:49:45.953Z,7
2022-11-23T13:50:54.306Z,7
2022-11-23T13:52:02.882Z,10.3
2022-11-23T13:53:11.221Z,10.3
2022-11-23T13:54:19.581Z,10.3
2022-11-23T13:55:28.163Z,8.3
2022-11-23T13:56:36.516Z,8.3
2022-11-23T13:57:44.882Z,8.3
2022-11-23T13:58:53.444Z,7.1
2022-11-23T14:00:01.775Z,7.1
2022-11-23T14:01:10.226Z,7.1
2022-11-23T14:02:18.719Z,6.3
2022-11-23T14:03:27.052Z,6.3
2022-11-23T14:04:35.746Z,6.3
2022-11-23T14:05:43.983Z,9.3
2022-11-23T14:06:52.329Z,9.3
2022-11-23T14:08:00.691Z,9.3
2022-11-23T14:09:09.212Z,6.8
2022-11-23T14:10:17.571Z,6.8
2022-11-23T14:11:25.918Z,6.8
2022-11-23T14:12:34.563Z,6.5
2022-11-23T14:13:42.866Z,6.5
2022-11-23T14:14:51.208Z,6.5
2022-11-23T14:15:59.862Z,6.5
2022-11-23T14:17:09.425Z,6.5
2022-11-23T14:18:16.500Z,6.5
2022-11-23T14:19:25.057Z,6.1
2022-11-23T14:20:33.411Z,6.1
2022-11-23T14:21:41.787Z,6.1
2022-11-23T14:22:50.333Z,5.8
2022-11-23T14:23:58.659Z,5.8
2022-11-23T14:25:06.998Z,5.8
2022-11-23T14:26:15.551Z,7.2
2022-11-23T14:27:46.096Z,7.2
2022-11-23T14:28:32.263Z,7.2
2022-11-23T14:29:40.787Z,7.8
2022-11-23T15:03:10.955Z,0
2022-11-23T15:04:10.919Z,0
2022-11-23T15:05:19.263Z,0
2022-11-23T15:06:27.736Z,6.6
2022-11-23T15:07:36.135Z,6.6
2022-11-23T15:08:44.455Z,6.6
2022-11-23T15:09:53.011Z,7.9
2022-11-23T15:11:01.356Z,7.9
2022-11-23T15:12:09.738Z,7.9
2022-11-23T15:13:18.287Z,6.3
2022-11-23T15:14:26.663Z,6.3
2022-11-23T15:15:34.989Z,6.3
2022-11-23T15:16:43.640Z,10.2
2022-11-23T15:17:51.923Z,10.2
2022-11-23T15:19:00.292Z,10.2
2022-11-23T15:20:08.793Z,11.7
2022-11-23T15:21:17.163Z,11.7
2022-11-23T15:22:25.529Z,11.7
2022-11-23T15:23:34.072Z,12.2
2022-11-23T15:24:42.446Z,12.2
2022-11-23T15:25:50.761Z,12.2
2022-11-23T15:26:59.340Z,12
2022-11-23T15:28:07.678Z,12
2022-11-23T15:29:16.050Z,12
2022-11-23T15:30:24.576Z,13.5
2022-11-23T15:31:32.981Z,13.5
2022-11-23T15:32:41.286Z,13.5
2022-11-23T15:33:49.829Z,9.8
2022-11-23T15:34:58.173Z,9.8
2022-11-23T15:36:06.492Z,9.8
2022-11-23T15:37:15.059Z,8
2022-11-23T15:38:24.208Z,8
2022-11-23T15:39:32.053Z,8
2022-11-23T15:40:40.302Z,6.9
2022-11-23T15:41:48.634Z,6.9
2022-11-23T15:42:56.982Z,6.9
2022-11-23T15:44:05.543Z,9.3
2022-11-23T15:45:13.882Z,9.3
2022-11-23T15:46:22.286Z,9.3
2022-11-23T15:47:30.785Z,7.2
2022-11-23T15:48:39.117Z,7.2
2022-11-23T15:49:47.464Z,7.2
2022-11-23T15:50:56.072Z,7.6
2022-11-23T15:52:04.384Z,7.6
2022-11-23T15:53:12.740Z,7.6
2022-11-23T15:54:21.302Z,6.6
2022-11-23T15:55:29.649Z,6.6
2022-11-23T15:56:38.007Z,6.6
2022-11-23T15:57:46.565Z,9.9